sensor_id;sensor_type;location;lat;lon;timestamp;P1;durP1;ratioP1;P2;durP2;ratioP2
81815;SDS011;71249;52.084;5.304;2023-08-06T00:00:00;11.5;;;8.71;;
81815;SDS011;71249;52.084;5.304;2023-08-06T00:01:37;8.9;;;8.0;;
81815;SDS011;71249;52.084;5.304;2023-08-06T00:04:49;8.71;;;7.8;;
81815;SDS011;71249;52.084;5.304;2023-08-06T00:06:25;10.8;;;9.31;;
81815;SDS011;71249;52.084;5.304;2023-08-06T00:08:01;9.5;;;8.2;;
81815;SDS011;71249;52.084;5.304;2023-08-06T00:11:13;9.31;;;8.31;;
81815;SDS011;71249;52.084;5.304;2023-08-06T00:12:50;9.5;;;8.4;;
81815;SDS011;71249;52.084;5.304;2023-08-06T00:14:26;8.0;;;7.2;;
81815;SDS011;71249;52.084;5.304;2023-08-06T00:17:46;9.5;;;8.5;;
81815;SDS011;71249;52.084;5.304;2023-08-06T00:19:23;10.3;;;9.21;;
81815;SDS011;71249;52.084;5.304;2023-08-06T00:20:59;10.1;;;8.6;;
81815;SDS011;71249;52.084;5.304;2023-08-06T00:22:36;8.9;;;8.0;;
81815;SDS011;71249;52.084;5.304;2023-08-06T00:25:49;9.71;;;8.5;;
81815;SDS011;71249;52.084;5.304;2023-08-06T00:27:26;9.4;;;8.5;;
81815;SDS011;71249;52.084;5.304;2023-08-06T00:29:03;9.4;;;8.5;;
81815;SDS011;71249;52.084;5.304;2023-08-06T00:32:16;10.8;;;8.6;;
81815;SDS011;71249;52.084;5.304;2023-08-06T00:33:53;9.81;;;8.9;;
81815;SDS011;71249;52.084;5.304;2023-08-06T00:35:29;10.0;;;8.1;;
81815;SDS011;71249;52.084;5.304;2023-08-06T00:38:43;9.5;;;8.6;;
81815;SDS011;71249;52.084;5.304;2023-08-06T00:40:20;9.21;;;8.31;;
81815;SDS011;71249;52.084;5.304;2023-08-06T00:41:57;8.4;;;7.7;;
81815;SDS011;71249;52.084;5.304;2023-08-06T00:43:34;10.3;;;8.5;;
81815;SDS011;71249;52.084;5.304;2023-08-06T00:46:47;9.9;;;8.9;;
81815;SDS011;71249;52.084;5.304;2023-08-06T00:48:23;9.6;;;8.6;;
81815;SDS011;71249;52.084;5.304;2023-08-06T00:50:00;9.5;;;8.6;;
81815;SDS011;71249;52.084;5.304;2023-08-06T00:53:14;8.31;;;7.4;;
81815;SDS011;71249;52.084;5.304;2023-08-06T00:54:50;8.31;;;7.3;;
81815;SDS011;71249;52.084;5.304;2023-08-06T00:56:27;9.81;;;8.5;;
81815;SDS011;71249;52.084;5.304;2023-08-06T00:59:42;8.6;;;7.9;;
81815;SDS011;71249;52.084;5.304;2023-08-06T01:01:19;9.9;;;8.5;;
81815;SDS011;71249;52.084;5.304;2023-08-06T01:02:55;8.5;;;7.6;;
81815;SDS011;71249;52.084;5.304;2023-08-06T01:04:32;11.1;;;8.2;;
81815;SDS011;71249;52.084;5.304;2023-08-06T01:07:48;8.4;;;7.7;;
81815;SDS011;71249;52.084;5.304;2023-08-06T01:09:41;8.81;;;8.0;;
81815;SDS011;71249;52.084;5.304;2023-08-06T01:11:32;8.4;;;7.5;;
81815;SDS011;71249;52.084;5.304;2023-08-06T01:13:16;8.2;;;7.5;;
81815;SDS011;71249;52.084;5.304;2023-08-06T01:15:07;8.81;;;7.9;;
81815;SDS011;71249;52.084;5.304;2023-08-06T01:18:31;7.8;;;7.0;;
81815;SDS011;71249;52.084;5.304;2023-08-06T01:20:07;10.8;;;8.2;;
81815;SDS011;71249;52.084;5.304;2023-08-06T01:21:44;9.1;;;8.2;;
81815;SDS011;71249;52.084;5.304;2023-08-06T01:23:20;8.81;;;7.9;;
81815;SDS011;71249;52.084;5.304;2023-08-06T01:26:35;9.31;;;7.8;;
81815;SDS011;71249;52.084;5.304;2023-08-06T01:28:20;9.31;;;8.4;;
81815;SDS011;71249;52.084;5.304;2023-08-06T01:30:11;11.0;;;8.0;;
81815;SDS011;71249;52.084;5.304;2023-08-06T01:31:59;9.21;;;7.5;;
81815;SDS011;71249;52.084;5.304;2023-08-06T01:35:21;8.6;;;7.7;;
81815;SDS011;71249;52.084;5.304;2023-08-06T01:36:58;8.71;;;7.4;;
81815;SDS011;71249;52.084;5.304;2023-08-06T01:38:37;7.9;;;7.1;;
81815;SDS011;71249;52.084;5.304;2023-08-06T01:40:13;11.2;;;9.0;;
81815;SDS011;71249;52.084;5.304;2023-08-06T01:43:26;8.4;;;7.6;;
81815;SDS011;71249;52.084;5.304;2023-08-06T01:45:03;9.6;;;8.1;;
81815;SDS011;71249;52.084;5.304;2023-08-06T01:46:40;9.0;;;8.1;;
81815;SDS011;71249;52.084;5.304;2023-08-06T01:49:53;11.6;;;8.5;;
81815;SDS011;71249;52.084;5.304;2023-08-06T01:51:29;11.9;;;8.5;;
81815;SDS011;71249;52.084;5.304;2023-08-06T01:53:05;10.5;;;8.31;;
81815;SDS011;71249;52.084;5.304;2023-08-06T01:54:41;8.4;;;7.6;;
81815;SDS011;71249;52.084;5.304;2023-08-06T01:57:54;8.4;;;7.6;;
81815;SDS011;71249;52.084;5.304;2023-08-06T01:59:29;9.71;;;8.4;;
81815;SDS011;71249;52.084;5.304;2023-08-06T02:01:06;9.4;;;8.4;;
81815;SDS011;71249;52.084;5.304;2023-08-06T02:04:18;9.31;;;7.5;;
81815;SDS011;71249;52.084;5.304;2023-08-06T02:05:54;9.5;;;8.1;;
81815;SDS011;71249;52.084;5.304;2023-08-06T02:07:30;11.1;;;8.0;;
81815;SDS011;71249;52.084;5.304;2023-08-06T02:10:42;8.9;;;7.8;;
81815;SDS011;71249;52.084;5.304;2023-08-06T02:12:18;8.9;;;7.8;;
81815;SDS011;71249;52.084;5.304;2023-08-06T02:13:55;8.71;;;7.9;;
81815;SDS011;71249;52.084;5.304;2023-08-06T02:15:31;9.81;;;7.7;;
81815;SDS011;71249;52.084;5.304;2023-08-06T02:18:43;9.5;;;8.2;;
81815;SDS011;71249;52.084;5.304;2023-08-06T02:20:19;7.8;;;7.0;;
81815;SDS011;71249;52.084;5.304;2023-08-06T02:21:55;8.6;;;7.8;;
81815;SDS011;71249;52.084;5.304;2023-08-06T02:25:08;9.81;;;8.2;;
81815;SDS011;71249;52.084;5.304;2023-08-06T02:26:45;9.81;;;8.2;;
81815;SDS011;71249;52.084;5.304;2023-08-06T02:28:22;8.6;;;7.7;;
81815;SDS011;71249;52.084;5.304;2023-08-06T02:31:35;10.0;;;8.31;;
81815;SDS011;71249;52.084;5.304;2023-08-06T02:33:11;9.31;;;8.31;;
81815;SDS011;71249;52.084;5.304;2023-08-06T02:34:47;9.4;;;8.4;;
81815;SDS011;71249;52.084;5.304;2023-08-06T02:37:59;8.2;;;7.4;;
81815;SDS011;71249;52.084;5.304;2023-08-06T02:39:36;9.21;;;8.31;;
81815;SDS011;71249;52.084;5.304;2023-08-06T02:41:12;10.5;;;8.4;;
81815;SDS011;71249;52.084;5.304;2023-08-06T02:42:49;9.21;;;8.31;;
81815;SDS011;71249;52.084;5.304;2023-08-06T02:46:03;9.21;;;8.2;;
81815;SDS011;71249;52.084;5.304;2023-08-06T02:47:40;9.21;;;8.31;;
81815;SDS011;71249;52.084;5.304;2023-08-06T02:49:16;9.0;;;8.2;;
81815;SDS011;71249;52.084;5.304;2023-08-06T02:52:32;10.4;;;8.4;;
81815;SDS011;71249;52.084;5.304;2023-08-06T02:54:08;8.9;;;8.1;;
81815;SDS011;71249;52.084;5.304;2023-08-06T02:55:45;10.21;;;9.31;;
81815;SDS011;71249;52.084;5.304;2023-08-06T02:57:23;10.3;;;8.5;;
81815;SDS011;71249;52.084;5.304;2023-08-06T03:00:36;11.1;;;10.0;;
81815;SDS011;71249;52.084;5.304;2023-08-06T03:02:12;11.5;;;10.0;;
81815;SDS011;71249;52.084;5.304;2023-08-06T03:03:48;11.8;;;10.5;;
81815;SDS011;71249;52.084;5.304;2023-08-06T03:07:00;11.3;;;10.21;;
81815;SDS011;71249;52.084;5.304;2023-08-06T03:08:36;11.0;;;10.0;;
81815;SDS011;71249;52.084;5.304;2023-08-06T03:10:12;12.1;;;10.9;;
81815;SDS011;71249;52.084;5.304;2023-08-06T03:13:25;12.1;;;10.8;;
81815;SDS011;71249;52.084;5.304;2023-08-06T03:15:02;12.7;;;11.5;;
81815;SDS011;71249;52.084;5.304;2023-08-06T03:16:39;12.6;;;11.3;;
81815;SDS011;71249;52.084;5.304;2023-08-06T03:18:16;13.6;;;12.2;;
81815;SDS011;71249;52.084;5.304;2023-08-06T03:21:28;14.6;;;13.0;;
81815;SDS011;71249;52.084;5.304;2023-08-06T03:23:04;13.2;;;12.0;;
81815;SDS011;71249;52.084;5.304;2023-08-06T03:24:40;13.4;;;12.1;;
81815;SDS011;71249;52.084;5.304;2023-08-06T03:27:53;14.9;;;12.9;;
81815;SDS011;71249;52.084;5.304;2023-08-06T03:29:30;12.7;;;11.6;;
81815;SDS011;71249;52.084;5.304;2023-08-06T03:31:06;13.1;;;11.8;;
81815;SDS011;71249;52.084;5.304;2023-08-06T03:34:18;16.3;;;12.9;;
81815;SDS011;71249;52.084;5.304;2023-08-06T03:35:55;15.7;;;13.3;;
81815;SDS011;71249;52.084;5.304;2023-08-06T03:37:31;14.9;;;13.3;;
81815;SDS011;71249;52.084;5.304;2023-08-06T03:40:44;14.3;;;12.9;;
81815;SDS011;71249;52.084;5.304;2023-08-06T03:42:20;14.7;;;13.3;;
81815;SDS011;71249;52.084;5.304;2023-08-06T03:43:56;14.0;;;12.7;;
81815;SDS011;71249;52.084;5.304;2023-08-06T03:45:32;14.4;;;12.9;;
81815;SDS011;71249;52.084;5.304;2023-08-06T03:48:44;14.2;;;12.9;;
81815;SDS011;71249;52.084;5.304;2023-08-06T03:50:20;15.3;;;13.7;;
81815;SDS011;71249;52.084;5.304;2023-08-06T03:51:56;15.3;;;12.9;;
81815;SDS011;71249;52.084;5.304;2023-08-06T03:55:09;14.5;;;13.0;;
81815;SDS011;71249;52.084;5.304;2023-08-06T03:56:46;14.8;;;13.1;;
81815;SDS011;71249;52.084;5.304;2023-08-06T03:58:22;15.5;;;13.8;;
81815;SDS011;71249;52.084;5.304;2023-08-06T04:01:34;14.5;;;13.1;;
81815;SDS011;71249;52.084;5.304;2023-08-06T04:03:10;13.2;;;12.0;;
81815;SDS011;71249;52.084;5.304;2023-08-06T04:04:46;13.9;;;12.7;;
81815;SDS011;71249;52.084;5.304;2023-08-06T04:06:23;15.8;;;14.2;;
81815;SDS011;71249;52.084;5.304;2023-08-06T04:09:52;14.0;;;12.7;;
81815;SDS011;71249;52.084;5.304;2023-08-06T04:11:30;13.9;;;12.6;;
81815;SDS011;71249;52.084;5.304;2023-08-06T04:13:07;14.3;;;12.7;;
81815;SDS011;71249;52.084;5.304;2023-08-06T04:16:20;14.0;;;12.6;;
81815;SDS011;71249;52.084;5.304;2023-08-06T04:17:57;14.1;;;12.6;;
81815;SDS011;71249;52.084;5.304;2023-08-06T04:19:33;16.2;;;13.0;;
81815;SDS011;71249;52.084;5.304;2023-08-06T04:21:09;15.0;;;13.4;;
81815;SDS011;71249;52.084;5.304;2023-08-06T04:24:22;14.2;;;12.7;;
81815;SDS011;71249;52.084;5.304;2023-08-06T04:25:58;15.5;;;13.0;;
81815;SDS011;71249;52.084;5.304;2023-08-06T04:27:35;15.3;;;12.0;;
81815;SDS011;71249;52.084;5.304;2023-08-06T04:30:48;15.1;;;12.3;;
81815;SDS011;71249;52.084;5.304;2023-08-06T04:32:25;14.2;;;12.7;;
81815;SDS011;71249;52.084;5.304;2023-08-06T04:34:01;15.7;;;13.1;;
81815;SDS011;71249;52.084;5.304;2023-08-06T04:37:13;12.4;;;11.1;;
81815;SDS011;71249;52.084;5.304;2023-08-06T04:38:50;14.7;;;12.8;;
81815;SDS011;71249;52.084;5.304;2023-08-06T04:40:26;24.8;;;13.8;;
81815;SDS011;71249;52.084;5.304;2023-08-06T04:42:02;14.4;;;12.6;;
81815;SDS011;71249;52.084;5.304;2023-08-06T04:45:15;14.7;;;13.1;;
81815;SDS011;71249;52.084;5.304;2023-08-06T04:46:51;16.4;;;12.7;;
81815;SDS011;71249;52.084;5.304;2023-08-06T04:48:27;15.1;;;12.7;;
81815;SDS011;71249;52.084;5.304;2023-08-06T04:51:41;15.0;;;13.4;;
81815;SDS011;71249;52.084;5.304;2023-08-06T04:53:18;16.0;;;13.2;;
81815;SDS011;71249;52.084;5.304;2023-08-06T04:54:55;14.6;;;13.0;;
81815;SDS011;71249;52.084;5.304;2023-08-06T04:58:08;14.9;;;13.4;;
81815;SDS011;71249;52.084;5.304;2023-08-06T04:59:45;15.1;;;13.6;;
81815;SDS011;71249;52.084;5.304;2023-08-06T05:01:22;13.4;;;12.1;;
81815;SDS011;71249;52.084;5.304;2023-08-06T05:02:59;15.1;;;13.7;;
81815;SDS011;71249;52.084;5.304;2023-08-06T05:06:12;16.11;;;14.4;;
81815;SDS011;71249;52.084;5.304;2023-08-06T05:07:48;16.11;;;14.2;;
81815;SDS011;71249;52.084;5.304;2023-08-06T05:09:26;15.4;;;13.8;;
81815;SDS011;71249;52.084;5.304;2023-08-06T05:12:38;14.3;;;12.8;;
81815;SDS011;71249;52.084;5.304;2023-08-06T05:14:14;16.9;;;14.2;;
81815;SDS011;71249;52.084;5.304;2023-08-06T05:15:51;14.0;;;12.6;;
81815;SDS011;71249;52.084;5.304;2023-08-06T05:17:29;15.5;;;14.0;;
81815;SDS011;71249;52.084;5.304;2023-08-06T05:20:42;15.7;;;14.1;;
81815;SDS011;71249;52.084;5.304;2023-08-06T05:22:19;14.6;;;13.1;;
81815;SDS011;71249;52.084;5.304;2023-08-06T05:23:55;14.6;;;13.1;;
81815;SDS011;71249;52.084;5.304;2023-08-06T05:27:10;15.1;;;13.7;;
81815;SDS011;71249;52.084;5.304;2023-08-06T05:28:46;15.3;;;13.8;;
81815;SDS011;71249;52.084;5.304;2023-08-06T05:30:24;16.7;;;15.0;;
81815;SDS011;71249;52.084;5.304;2023-08-06T05:33:37;15.7;;;14.3;;
81815;SDS011;71249;52.084;5.304;2023-08-06T05:35:14;16.11;;;14.5;;
81815;SDS011;71249;52.084;5.304;2023-08-06T05:36:51;16.9;;;15.3;;
81815;SDS011;71249;52.084;5.304;2023-08-06T05:38:28;17.7;;;15.9;;
81815;SDS011;71249;52.084;5.304;2023-08-06T05:41:43;18.2;;;16.3;;
81815;SDS011;71249;52.084;5.304;2023-08-06T05:43:20;17.91;;;16.0;;
81815;SDS011;71249;52.084;5.304;2023-08-06T05:44:56;18.2;;;16.3;;
81815;SDS011;71249;52.084;5.304;2023-08-06T05:48:08;19.0;;;17.11;;
81815;SDS011;71249;52.084;5.304;2023-08-06T05:49:44;18.41;;;16.5;;
81815;SDS011;71249;52.084;5.304;2023-08-06T05:51:22;16.61;;;14.9;;
81815;SDS011;71249;52.084;5.304;2023-08-06T05:54:34;16.9;;;15.3;;
81815;SDS011;71249;52.084;5.304;2023-08-06T05:56:11;19.0;;;17.11;;
81815;SDS011;71249;52.084;5.304;2023-08-06T05:57:48;17.3;;;15.6;;
81815;SDS011;71249;52.084;5.304;2023-08-06T05:59:24;18.0;;;16.2;;
81815;SDS011;71249;52.084;5.304;2023-08-06T06:02:37;17.61;;;15.8;;
81815;SDS011;71249;52.084;5.304;2023-08-06T06:04:14;15.9;;;14.4;;
81815;SDS011;71249;52.084;5.304;2023-08-06T06:05:50;15.9;;;14.3;;
81815;SDS011;71249;52.084;5.304;2023-08-06T06:09:02;17.5;;;15.7;;
81815;SDS011;71249;52.084;5.304;2023-08-06T06:10:39;14.7;;;13.2;;
81815;SDS011;71249;52.084;5.304;2023-08-06T06:12:15;16.11;;;14.4;;
81815;SDS011;71249;52.084;5.304;2023-08-06T06:15:28;16.3;;;14.7;;
81815;SDS011;71249;52.084;5.304;2023-08-06T06:17:04;16.0;;;14.0;;
81815;SDS011;71249;52.084;5.304;2023-08-06T06:18:41;14.3;;;12.9;;
81815;SDS011;71249;52.084;5.304;2023-08-06T06:20:17;16.5;;;14.8;;
81815;SDS011;71249;52.084;5.304;2023-08-06T06:23:31;14.9;;;13.4;;
81815;SDS011;71249;52.084;5.304;2023-08-06T06:25:07;15.0;;;13.5;;
81815;SDS011;71249;52.084;5.304;2023-08-06T06:26:44;16.61;;;14.6;;
81815;SDS011;71249;52.084;5.304;2023-08-06T06:29:58;15.5;;;13.9;;
81815;SDS011;71249;52.084;5.304;2023-08-06T06:31:36;15.5;;;13.9;;
81815;SDS011;71249;52.084;5.304;2023-08-06T06:33:12;14.8;;;12.5;;
81815;SDS011;71249;52.084;5.304;2023-08-06T06:36:26;15.9;;;13.1;;
81815;SDS011;71249;52.084;5.304;2023-08-06T06:38:03;13.6;;;12.2;;
81815;SDS011;71249;52.084;5.304;2023-08-06T06:39:39;18.0;;;13.7;;
81815;SDS011;71249;52.084;5.304;2023-08-06T06:41:16;26.9;;;13.9;;
81815;SDS011;71249;52.084;5.304;2023-08-06T06:44:29;13.7;;;12.3;;
81815;SDS011;71249;52.084;5.304;2023-08-06T06:46:06;13.6;;;12.3;;
81815;SDS011;71249;52.084;5.304;2023-08-06T06:47:43;14.2;;;12.6;;
81815;SDS011;71249;52.084;5.304;2023-08-06T06:50:55;13.9;;;12.5;;
81815;SDS011;71249;52.084;5.304;2023-08-06T06:52:32;13.4;;;11.8;;
81815;SDS011;71249;52.084;5.304;2023-08-06T06:54:08;13.1;;;11.8;;
81815;SDS011;71249;52.084;5.304;2023-08-06T06:58:58;15.5;;;12.3;;
81815;SDS011;71249;52.084;5.304;2023-08-06T07:00:35;13.6;;;12.2;;
81815;SDS011;71249;52.084;5.304;2023-08-06T07:02:12;11.4;;;10.3;;
81815;SDS011;71249;52.084;5.304;2023-08-06T07:05:24;9.31;;;8.4;;
81815;SDS011;71249;52.084;5.304;2023-08-06T07:07:00;10.7;;;9.4;;
81815;SDS011;71249;52.084;5.304;2023-08-06T07:08:37;10.0;;;8.31;;
81815;SDS011;71249;52.084;5.304;2023-08-06T07:11:50;7.9;;;5.8;;
81815;SDS011;71249;52.084;5.304;2023-08-06T07:13:26;6.0;;;4.7;;
81815;SDS011;71249;52.084;5.304;2023-08-06T07:15:02;10.4;;;4.41;;
81815;SDS011;71249;52.084;5.304;2023-08-06T07:18:17;7.0;;;3.8;;
81815;SDS011;71249;52.084;5.304;2023-08-06T07:19:53;4.1;;;3.5;;
81815;SDS011;71249;52.084;5.304;2023-08-06T07:21:31;2.8;;;1.9;;
81815;SDS011;71249;52.084;5.304;2023-08-06T07:23:07;4.41;;;1.3;;
81815;SDS011;71249;52.084;5.304;2023-08-06T07:26:19;2.6;;;1.7;;
81815;SDS011;71249;52.084;5.304;2023-08-06T07:27:56;4.41;;;1.8;;
81815;SDS011;71249;52.084;5.304;2023-08-06T07:29:33;3.0;;;1.9;;
81815;SDS011;71249;52.084;5.304;2023-08-06T07:32:47;3.5;;;1.5;;
81815;SDS011;71249;52.084;5.304;2023-08-06T07:34:23;5.0;;;1.6;;
81815;SDS011;71249;52.084;5.304;2023-08-06T07:35:59;2.5;;;1.9;;
81815;SDS011;71249;52.084;5.304;2023-08-06T07:39:11;2.31;;;1.9;;
81815;SDS011;71249;52.084;5.304;2023-08-06T07:40:48;3.0;;;2.0;;
81815;SDS011;71249;52.084;5.304;2023-08-06T07:42:25;3.6;;;1.6;;
81815;SDS011;71249;52.084;5.304;2023-08-06T07:44:02;1.9;;;1.8;;
81815;SDS011;71249;52.084;5.304;2023-08-06T07:47:14;2.4;;;1.9;;
81815;SDS011;71249;52.084;5.304;2023-08-06T07:48:50;4.61;;;2.4;;
81815;SDS011;71249;52.084;5.304;2023-08-06T07:50:27;3.1;;;2.21;;
81815;SDS011;71249;52.084;5.304;2023-08-06T07:53:41;3.6;;;2.5;;
81815;SDS011;71249;52.084;5.304;2023-08-06T07:55:18;4.3;;;2.7;;
81815;SDS011;71249;52.084;5.304;2023-08-06T07:56:55;3.3;;;2.8;;
81815;SDS011;71249;52.084;5.304;2023-08-06T08:00:08;4.7;;;3.1;;
81815;SDS011;71249;52.084;5.304;2023-08-06T08:01:45;4.0;;;2.8;;
81815;SDS011;71249;52.084;5.304;2023-08-06T08:03:21;2.7;;;2.5;;
81815;SDS011;71249;52.084;5.304;2023-08-06T08:04:58;2.9;;;2.7;;
81815;SDS011;71249;52.084;5.304;2023-08-06T08:08:11;3.2;;;2.9;;
81815;SDS011;71249;52.084;5.304;2023-08-06T08:09:47;3.7;;;3.0;;
81815;SDS011;71249;52.084;5.304;2023-08-06T08:11:25;4.61;;;3.3;;
81815;SDS011;71249;52.084;5.304;2023-08-06T08:14:39;3.8;;;2.8;;
81815;SDS011;71249;52.084;5.304;2023-08-06T08:16:15;4.61;;;2.9;;
81815;SDS011;71249;52.084;5.304;2023-08-06T08:17:51;3.9;;;3.0;;
81815;SDS011;71249;52.084;5.304;2023-08-06T08:21:04;4.1;;;2.8;;
81815;SDS011;71249;52.084;5.304;2023-08-06T08:22:41;4.41;;;3.1;;
81815;SDS011;71249;52.084;5.304;2023-08-06T08:24:18;5.2;;;2.8;;
81815;SDS011;71249;52.084;5.304;2023-08-06T08:25:54;2.8;;;2.5;;
81815;SDS011;71249;52.084;5.304;2023-08-06T08:29:07;4.61;;;2.9;;
81815;SDS011;71249;52.084;5.304;2023-08-06T08:30:44;6.9;;;3.5;;
81815;SDS011;71249;52.084;5.304;2023-08-06T08:32:20;6.6;;;2.9;;
81815;SDS011;71249;52.084;5.304;2023-08-06T08:35:33;6.6;;;2.9;;
81815;SDS011;71249;52.084;5.304;2023-08-06T08:37:10;6.8;;;3.9;;
81815;SDS011;71249;52.084;5.304;2023-08-06T08:38:46;3.9;;;3.2;;
81815;SDS011;71249;52.084;5.304;2023-08-06T08:42:06;4.8;;;3.5;;
81815;SDS011;71249;52.084;5.304;2023-08-06T08:43:42;6.0;;;3.5;;
81815;SDS011;71249;52.084;5.304;2023-08-06T08:45:19;3.9;;;3.2;;
81815;SDS011;71249;52.084;5.304;2023-08-06T08:46:58;6.9;;;3.9;;
81815;SDS011;71249;52.084;5.304;2023-08-06T08:50:12;5.2;;;3.5;;
81815;SDS011;71249;52.084;5.304;2023-08-06T08:51:48;4.91;;;3.6;;
81815;SDS011;71249;52.084;5.304;2023-08-06T08:53:28;9.0;;;4.3;;
81815;SDS011;71249;52.084;5.304;2023-08-06T08:55:06;6.9;;;4.5;;
81815;SDS011;71249;52.084;5.304;2023-08-06T08:58:20;5.2;;;3.9;;
81815;SDS011;71249;52.084;5.304;2023-08-06T08:59:56;4.2;;;3.8;;
81815;SDS011;71249;52.084;5.304;2023-08-06T09:01:32;5.0;;;4.5;;
81815;SDS011;71249;52.084;5.304;2023-08-06T09:04:46;5.5;;;4.7;;
81815;SDS011;71249;52.084;5.304;2023-08-06T09:06:25;6.3;;;4.41;;
81815;SDS011;71249;52.084;5.304;2023-08-06T09:08:04;6.3;;;4.8;;
81815;SDS011;71249;52.084;5.304;2023-08-06T09:11:20;5.2;;;4.7;;
81815;SDS011;71249;52.084;5.304;2023-08-06T09:12:57;4.41;;;4.0;;
81815;SDS011;71249;52.084;5.304;2023-08-06T09:14:34;5.7;;;5.11;;
81815;SDS011;71249;52.084;5.304;2023-08-06T09:16:11;6.2;;;5.11;;
81815;SDS011;71249;52.084;5.304;2023-08-06T09:19:24;5.5;;;4.8;;
81815;SDS011;71249;52.084;5.304;2023-08-06T09:21:02;6.2;;;5.0;;
81815;SDS011;71249;52.084;5.304;2023-08-06T09:22:39;7.6;;;5.3;;
81815;SDS011;71249;52.084;5.304;2023-08-06T09:25:52;8.0;;;5.2;;
81815;SDS011;71249;52.084;5.304;2023-08-06T09:27:28;8.6;;;5.8;;
81815;SDS011;71249;52.084;5.304;2023-08-06T09:29:05;5.6;;;4.91;;
81815;SDS011;71249;52.084;5.304;2023-08-06T09:30:43;5.2;;;4.7;;
81815;SDS011;71249;52.084;5.304;2023-08-06T09:34:00;8.2;;;5.6;;
81815;SDS011;71249;52.084;5.304;2023-08-06T09:35:38;7.6;;;5.5;;
81815;SDS011;71249;52.084;5.304;2023-08-06T09:37:14;6.1;;;4.61;;
81815;SDS011;71249;52.084;5.304;2023-08-06T09:40:28;10.9;;;5.6;;
81815;SDS011;71249;52.084;5.304;2023-08-06T09:42:06;5.9;;;4.8;;
81815;SDS011;71249;52.084;5.304;2023-08-06T09:43:43;8.31;;;4.91;;
81815;SDS011;71249;52.084;5.304;2023-08-06T09:45:20;5.6;;;5.0;;
81815;SDS011;71249;52.084;5.304;2023-08-06T09:48:35;4.5;;;3.5;;
81815;SDS011;71249;52.084;5.304;2023-08-06T09:50:14;4.41;;;3.8;;
81815;SDS011;71249;52.084;5.304;2023-08-06T09:51:52;5.3;;;4.0;;
81815;SDS011;71249;52.084;5.304;2023-08-06T09:55:06;5.11;;;4.1;;
81815;SDS011;71249;52.084;5.304;2023-08-06T09:56:45;5.7;;;4.2;;
81815;SDS011;71249;52.084;5.304;2023-08-06T09:58:21;4.5;;;3.7;;
81815;SDS011;71249;52.084;5.304;2023-08-06T10:00:01;4.61;;;3.9;;
81815;SDS011;71249;52.084;5.304;2023-08-06T10:03:15;6.6;;;4.3;;
81815;SDS011;71249;52.084;5.304;2023-08-06T10:04:52;5.11;;;4.0;;
81815;SDS011;71249;52.084;5.304;2023-08-06T10:06:32;4.8;;;4.0;;
81815;SDS011;71249;52.084;5.304;2023-08-06T10:09:47;4.41;;;4.0;;
81815;SDS011;71249;52.084;5.304;2023-08-06T10:11:24;4.8;;;4.3;;
81815;SDS011;71249;52.084;5.304;2023-08-06T10:13:01;7.1;;;4.5;;
81815;SDS011;71249;52.084;5.304;2023-08-06T10:14:41;5.4;;;4.41;;
81815;SDS011;71249;52.084;5.304;2023-08-06T10:17:57;5.9;;;5.0;;
81815;SDS011;71249;52.084;5.304;2023-08-06T10:19:36;6.2;;;4.8;;
81815;SDS011;71249;52.084;5.304;2023-08-06T10:21:13;6.8;;;4.5;;
81815;SDS011;71249;52.084;5.304;2023-08-06T10:24:46;5.9;;;4.2;;
81815;SDS011;71249;52.084;5.304;2023-08-06T10:26:28;5.9;;;4.2;;
81815;SDS011;71249;52.084;5.304;2023-08-06T10:28:08;6.4;;;4.61;;
81815;SDS011;71249;52.084;5.304;2023-08-06T10:29:46;6.0;;;3.9;;
81815;SDS011;71249;52.084;5.304;2023-08-06T10:31:51;6.4;;;4.0;;
81815;SDS011;71249;52.084;5.304;2023-08-06T10:33:39;5.8;;;4.1;;
81815;SDS011;71249;52.084;5.304;2023-08-06T10:37:34;6.4;;;3.9;;
81815;SDS011;71249;52.084;5.304;2023-08-06T10:39:13;5.9;;;3.6;;
81815;SDS011;71249;52.084;5.304;2023-08-06T10:41:00;5.6;;;3.4;;
81815;SDS011;71249;52.084;5.304;2023-08-06T10:42:38;4.3;;;3.4;;
81815;SDS011;71249;52.084;5.304;2023-08-06T10:44:16;5.9;;;3.6;;
81815;SDS011;71249;52.084;5.304;2023-08-06T10:47:29;4.91;;;3.8;;
81815;SDS011;71249;52.084;5.304;2023-08-06T10:49:05;5.5;;;3.8;;
81815;SDS011;71249;52.084;5.304;2023-08-06T10:50:42;5.6;;;4.1;;
81815;SDS011;71249;52.084;5.304;2023-08-06T10:52:18;4.5;;;3.3;;
81815;SDS011;71249;52.084;5.304;2023-08-06T10:55:31;6.6;;;3.7;;
81815;SDS011;71249;52.084;5.304;2023-08-06T10:57:08;6.0;;;3.8;;
81815;SDS011;71249;52.084;5.304;2023-08-06T10:58:47;6.4;;;3.7;;
81815;SDS011;71249;52.084;5.304;2023-08-06T11:02:02;4.8;;;3.4;;
81815;SDS011;71249;52.084;5.304;2023-08-06T11:03:39;6.6;;;4.0;;
81815;SDS011;71249;52.084;5.304;2023-08-06T11:05:17;4.2;;;3.6;;
81815;SDS011;71249;52.084;5.304;2023-08-06T11:06:53;3.7;;;3.0;;
81815;SDS011;71249;52.084;5.304;2023-08-06T11:10:12;4.3;;;3.3;;
81815;SDS011;71249;52.084;5.304;2023-08-06T11:11:49;5.0;;;3.9;;
81815;SDS011;71249;52.084;5.304;2023-08-06T11:13:25;3.9;;;3.0;;
81815;SDS011;71249;52.084;5.304;2023-08-06T11:16:41;5.5;;;3.2;;
81815;SDS011;71249;52.084;5.304;2023-08-06T11:18:18;6.8;;;3.5;;
81815;SDS011;71249;52.084;5.304;2023-08-06T11:19:54;3.9;;;3.3;;
81815;SDS011;71249;52.084;5.304;2023-08-06T11:21:32;3.9;;;3.3;;
81815;SDS011;71249;52.084;5.304;2023-08-06T11:24:46;3.9;;;2.7;;
81815;SDS011;71249;52.084;5.304;2023-08-06T11:26:22;4.7;;;2.8;;
81815;SDS011;71249;52.084;5.304;2023-08-06T11:28:00;4.0;;;2.5;;
81815;SDS011;71249;52.084;5.304;2023-08-06T11:31:18;3.9;;;2.9;;
81815;SDS011;71249;52.084;5.304;2023-08-06T11:32:56;4.5;;;2.7;;
81815;SDS011;71249;52.084;5.304;2023-08-06T11:34:33;3.5;;;2.6;;
81815;SDS011;71249;52.084;5.304;2023-08-06T11:36:10;4.7;;;2.9;;
81815;SDS011;71249;52.084;5.304;2023-08-06T11:39:22;4.2;;;2.8;;
81815;SDS011;71249;52.084;5.304;2023-08-06T11:40:59;4.3;;;2.4;;
81815;SDS011;71249;52.084;5.304;2023-08-06T11:42:36;3.6;;;2.1;;
81815;SDS011;71249;52.084;5.304;2023-08-06T11:45:49;3.6;;;2.1;;
81815;SDS011;71249;52.084;5.304;2023-08-06T11:47:26;3.6;;;2.0;;
81815;SDS011;71249;52.084;5.304;2023-08-06T11:49:02;3.5;;;2.0;;
81815;SDS011;71249;52.084;5.304;2023-08-06T11:52:16;3.5;;;2.21;;
81815;SDS011;71249;52.084;5.304;2023-08-06T11:53:55;3.7;;;2.1;;
81815;SDS011;71249;52.084;5.304;2023-08-06T11:55:32;2.9;;;1.9;;
81815;SDS011;71249;52.084;5.304;2023-08-06T11:57:09;3.0;;;2.1;;
81815;SDS011;71249;52.084;5.304;2023-08-06T12:00:25;3.6;;;2.31;;
81815;SDS011;71249;52.084;5.304;2023-08-06T12:02:03;2.9;;;2.1;;
81815;SDS011;71249;52.084;5.304;2023-08-06T12:03:41;6.4;;;2.0;;
81815;SDS011;71249;52.084;5.304;2023-08-06T12:06:55;3.7;;;2.0;;
81815;SDS011;71249;52.084;5.304;2023-08-06T12:08:31;3.8;;;2.0;;
81815;SDS011;71249;52.084;5.304;2023-08-06T12:10:08;4.0;;;1.7;;
81815;SDS011;71249;52.084;5.304;2023-08-06T12:11:45;3.6;;;2.0;;
81815;SDS011;71249;52.084;5.304;2023-08-06T12:14:57;2.6;;;1.8;;
81815;SDS011;71249;52.084;5.304;2023-08-06T12:16:34;3.5;;;1.8;;
81815;SDS011;71249;52.084;5.304;2023-08-06T12:18:12;1.9;;;1.4;;
81815;SDS011;71249;52.084;5.304;2023-08-06T12:21:25;2.7;;;1.8;;
81815;SDS011;71249;52.084;5.304;2023-08-06T12:23:01;3.7;;;1.5;;
81815;SDS011;71249;52.084;5.304;2023-08-06T12:24:37;2.1;;;1.3;;
81815;SDS011;71249;52.084;5.304;2023-08-06T12:27:49;4.61;;;1.8;;
81815;SDS011;71249;52.084;5.304;2023-08-06T12:29:27;4.61;;;1.4;;
81815;SDS011;71249;52.084;5.304;2023-08-06T12:31:03;2.5;;;1.3;;
81815;SDS011;71249;52.084;5.304;2023-08-06T12:32:40;2.5;;;1.3;;
81815;SDS011;71249;52.084;5.304;2023-08-06T12:35:52;3.2;;;1.2;;
81815;SDS011;71249;52.084;5.304;2023-08-06T12:37:28;3.4;;;1.3;;
81815;SDS011;71249;52.084;5.304;2023-08-06T12:39:05;3.4;;;1.5;;
81815;SDS011;71249;52.084;5.304;2023-08-06T12:42:17;2.5;;;1.2;;
81815;SDS011;71249;52.084;5.304;2023-08-06T12:43:53;2.5;;;1.11;;
81815;SDS011;71249;52.084;5.304;2023-08-06T12:45:30;1.9;;;1.4;;
81815;SDS011;71249;52.084;5.304;2023-08-06T12:48:43;1.8;;;1.4;;
81815;SDS011;71249;52.084;5.304;2023-08-06T12:50:19;2.8;;;1.11;;